BVX177 ENGM-ENVA
Flight info
| Callsign | BVX177 |
|---|---|
| Flight time | 0h 37m |
| Altitude | 31000 |
| Route | RIBBE DCT GIGNI DCT VEVOD |
| Aircraft | A319/M-SDE3FGHIRWY/LB1 |
Departure
| Time | 2026-05-06 13:58 |
|---|---|
| Airport | Oslo-Gardermoen International Airport (ENGM) |
Arrival
| Time | 2026-05-06 14:35 |
|---|---|
| Airport | Trondheim Airport, Værnes (ENVA) |
| Time | Latitude | Longitude | Altitude | Speed | Heading |
|---|---|---|---|---|---|
| 2026-05-06 13:38 | 60.19351 | 11.09129 | 682 ft | 0 kts | 196° |
| 2026-05-06 13:49 | 60.19367 | 11.09138 | 682 ft | 4 kts | 196° |
| 2026-05-06 13:49 | 60.19393 | 11.09153 | 681 ft | 3 kts | 196° |
| 2026-05-06 13:50 | 60.19397 | 11.09155 | 682 ft | 0 kts | 196° |
| 2026-05-06 13:52 | 60.19396 | 11.09152 | 682 ft | 0 kts | 216° |
| 2026-05-06 13:52 | 60.19407 | 11.09109 | 684 ft | 9 kts | 304° |
| 2026-05-06 13:53 | 60.19468 | 11.08961 | 685 ft | 16 kts | 305° |
| 2026-05-06 13:53 | 60.19508 | 11.08724 | 677 ft | 21 kts | 287° |
| 2026-05-06 13:53 | 60.19550 | 11.08440 | 677 ft | 16 kts | 294° |
| 2026-05-06 13:53 | 60.19653 | 11.08433 | 678 ft | 17 kts | 16° |
| 2026-05-06 13:54 | 60.19773 | 11.08503 | 678 ft | 19 kts | 16° |
| 2026-05-06 13:54 | 60.19905 | 11.08579 | 679 ft | 21 kts | 15° |
| 2026-05-06 13:54 | 60.20048 | 11.08661 | 680 ft | 22 kts | 15° |
| 2026-05-06 13:54 | 60.20202 | 11.08750 | 681 ft | 24 kts | 16° |
| 2026-05-06 13:55 | 60.20364 | 11.08844 | 681 ft | 25 kts | 16° |
| 2026-05-06 13:55 | 60.20537 | 11.08943 | 682 ft | 24 kts | 16° |
| 2026-05-06 13:55 | 60.20641 | 11.08992 | 682 ft | 10 kts | 348° |
| 2026-05-06 13:55 | 60.20677 | 11.08842 | 676 ft | 14 kts | 288° |
| 2026-05-06 13:56 | 60.20704 | 11.08667 | 677 ft | 8 kts | 285° |
| 2026-05-06 13:56 | 60.20682 | 11.08631 | 677 ft | 4 kts | 192° |
| 2026-05-06 13:56 | 60.20673 | 11.08626 | 679 ft | 0 kts | 195° |
| 2026-05-06 13:57 | 60.20619 | 11.08596 | 677 ft | 31 kts | 196° |
| 2026-05-06 13:57 | 60.20206 | 11.08359 | 677 ft | 91 kts | 196° |
| 2026-05-06 13:57 | 60.19409 | 11.07900 | 682 ft | 145 kts | 195° |
| 2026-05-06 13:57 | 60.18427 | 11.07310 | 1235 ft | 148 kts | 197° |
| 2026-05-06 13:58 | 60.17440 | 11.06664 | 1919 ft | 150 kts | 200° |
| 2026-05-06 13:58 | 60.16524 | 11.05637 | 2499 ft | 153 kts | 226° |
| 2026-05-06 13:58 | 60.15956 | 11.03853 | 3181 ft | 152 kts | 250° |
| 2026-05-06 13:58 | 60.15584 | 11.01840 | 3867 ft | 155 kts | 249° |
| 2026-05-06 13:59 | 60.15138 | 10.99758 | 4322 ft | 173 kts | 247° |
| 2026-05-06 13:59 | 60.14626 | 10.97435 | 4670 ft | 195 kts | 248° |
| 2026-05-06 13:59 | 60.14277 | 10.94660 | 5026 ft | 218 kts | 269° |
| 2026-05-06 13:59 | 60.14737 | 10.91614 | 5464 ft | 246 kts | 306° |
| 2026-05-06 14:00 | 60.16172 | 10.89587 | 6185 ft | 265 kts | 343° |
| 2026-05-06 14:00 | 60.18032 | 10.89419 | 7168 ft | 273 kts | 5° |
| 2026-05-06 14:00 | 60.19912 | 10.90129 | 8187 ft | 277 kts | 13° |
| 2026-05-06 14:00 | 60.21788 | 10.91162 | 9199 ft | 282 kts | 15° |
| 2026-05-06 14:01 | 60.23685 | 10.92287 | 10139 ft | 287 kts | 15° |
| 2026-05-06 14:01 | 60.25689 | 10.93439 | 10563 ft | 311 kts | 14° |
| 2026-05-06 14:01 | 60.27858 | 10.94606 | 10873 ft | 334 kts | 12° |
| 2026-05-06 14:01 | 60.30187 | 10.95783 | 11239 ft | 354 kts | 11° |
| 2026-05-06 14:02 | 60.32605 | 10.96953 | 11878 ft | 362 kts | 10° |
| 2026-05-06 14:02 | 60.35078 | 10.98125 | 12576 ft | 368 kts | 9° |
| 2026-05-06 14:02 | 60.37592 | 10.99305 | 13290 ft | 373 kts | 9° |
| 2026-05-06 14:02 | 60.40142 | 11.00501 | 13966 ft | 379 kts | 8° |
| 2026-05-06 14:03 | 60.42729 | 11.01717 | 14597 ft | 384 kts | 8° |
| 2026-05-06 14:03 | 60.45350 | 11.02956 | 15218 ft | 389 kts | 8° |
| 2026-05-06 14:03 | 60.48004 | 11.04222 | 15857 ft | 394 kts | 7° |
| 2026-05-06 14:03 | 60.50655 | 11.05495 | 16515 ft | 399 kts | 7° |
| 2026-05-06 14:04 | 60.53373 | 11.06801 | 17165 ft | 404 kts | 7° |
| 2026-05-06 14:04 | 60.56127 | 11.08130 | 17833 ft | 409 kts | 7° |
| 2026-05-06 14:04 | 60.58908 | 11.09475 | 18494 ft | 414 kts | 6° |
| 2026-05-06 14:04 | 60.61731 | 11.10838 | 19033 ft | 419 kts | 5° |
| 2026-05-06 14:05 | 60.64592 | 11.12217 | 19563 ft | 424 kts | 5° |
| 2026-05-06 14:05 | 60.67480 | 11.13610 | 20125 ft | 429 kts | 5° |
| 2026-05-06 14:05 | 60.70402 | 11.15023 | 20655 ft | 434 kts | 5° |
| 2026-05-06 14:05 | 60.73356 | 11.16458 | 21171 ft | 438 kts | 5° |
| 2026-05-06 14:06 | 60.76339 | 11.17907 | 21671 ft | 443 kts | 5° |
| 2026-05-06 14:06 | 60.79355 | 11.19382 | 22157 ft | 447 kts | 5° |
| 2026-05-06 14:06 | 60.82396 | 11.20872 | 22638 ft | 452 kts | 5° |
| 2026-05-06 14:06 | 60.85468 | 11.22373 | 23110 ft | 456 kts | 5° |
| 2026-05-06 14:07 | 60.88573 | 11.23891 | 23605 ft | 461 kts | 4° |
| 2026-05-06 14:07 | 60.91714 | 11.25422 | 23930 ft | 466 kts | 4° |
| 2026-05-06 14:07 | 60.94880 | 11.26981 | 24309 ft | 470 kts | 4° |
| 2026-05-06 14:07 | 60.98077 | 11.28566 | 24702 ft | 474 kts | 4° |
| 2026-05-06 14:08 | 61.01293 | 11.30167 | 25088 ft | 477 kts | 4° |
| 2026-05-06 14:08 | 61.04534 | 11.31776 | 25470 ft | 481 kts | 4° |
| 2026-05-06 14:08 | 61.07761 | 11.33378 | 25835 ft | 484 kts | 4° |
| 2026-05-06 14:08 | 61.11040 | 11.35013 | 26217 ft | 487 kts | 4° |
| 2026-05-06 14:09 | 61.14343 | 11.36660 | 26593 ft | 489 kts | 4° |
| 2026-05-06 14:09 | 61.17668 | 11.38313 | 26943 ft | 493 kts | 4° |
| 2026-05-06 14:09 | 61.21007 | 11.39976 | 27295 ft | 496 kts | 5° |
| 2026-05-06 14:09 | 61.24374 | 11.41666 | 27633 ft | 499 kts | 5° |
| 2026-05-06 14:10 | 61.27754 | 11.43381 | 27966 ft | 502 kts | 5° |
| 2026-05-06 14:10 | 61.31158 | 11.45113 | 28306 ft | 505 kts | 5° |
| 2026-05-06 14:10 | 61.34585 | 11.46843 | 28646 ft | 507 kts | 4° |
| 2026-05-06 14:10 | 61.38045 | 11.48037 | 28983 ft | 499 kts | 356° |
| 2026-05-06 14:11 | 61.41485 | 11.48318 | 29351 ft | 492 kts | 349° |
| 2026-05-06 14:11 | 61.44909 | 11.48301 | 29908 ft | 491 kts | 349° |
| 2026-05-06 14:11 | 61.48324 | 11.48310 | 30358 ft | 490 kts | 350° |
| 2026-05-06 14:11 | 61.51730 | 11.48336 | 30748 ft | 489 kts | 350° |
| 2026-05-06 14:12 | 61.55084 | 11.48365 | 30898 ft | 488 kts | 351° |
| 2026-05-06 14:12 | 61.58468 | 11.48390 | 30938 ft | 485 kts | 351° |
| 2026-05-06 14:12 | 61.65203 | 11.48414 | 30935 ft | 483 kts | 350° |
| 2026-05-06 14:13 | 61.71928 | 11.48429 | 30939 ft | 483 kts | 350° |
| 2026-05-06 14:13 | 61.78646 | 11.48446 | 30927 ft | 482 kts | 351° |
| 2026-05-06 14:14 | 61.85361 | 11.48445 | 30967 ft | 482 kts | 352° |
| 2026-05-06 14:14 | 61.92063 | 11.48483 | 30960 ft | 482 kts | 352° |
| 2026-05-06 14:15 | 61.98761 | 11.48525 | 30953 ft | 481 kts | 351° |
| 2026-05-06 14:15 | 62.05335 | 11.47321 | 31005 ft | 473 kts | 345° |
| 2026-05-06 14:16 | 62.11958 | 11.46796 | 30959 ft | 480 kts | 354° |
| 2026-05-06 14:16 | 62.18641 | 11.47152 | 30947 ft | 480 kts | 354° |
| 2026-05-06 14:17 | 62.25318 | 11.47576 | 30943 ft | 480 kts | 354° |
| 2026-05-06 14:17 | 62.32001 | 11.47975 | 30079 ft | 483 kts | 353° |
| 2026-05-06 14:18 | 62.35398 | 11.48152 | 28654 ft | 493 kts | 354° |
| 2026-05-06 14:18 | 62.38840 | 11.48331 | 27605 ft | 493 kts | 355° |
| 2026-05-06 14:18 | 62.42217 | 11.48522 | 26624 ft | 490 kts | 356° |
| 2026-05-06 14:18 | 62.45622 | 11.48724 | 25471 ft | 490 kts | 356° |
| 2026-05-06 14:19 | 62.49027 | 11.48933 | 24465 ft | 487 kts | 357° |
| 2026-05-06 14:19 | 62.52393 | 11.49147 | 23589 ft | 480 kts | 357° |
| 2026-05-06 14:19 | 62.55702 | 11.49350 | 22596 ft | 471 kts | 358° |
| 2026-05-06 14:19 | 62.58949 | 11.49543 | 21599 ft | 463 kts | 358° |
| 2026-05-06 14:20 | 62.62137 | 11.49726 | 20658 ft | 454 kts | 358° |
| 2026-05-06 14:20 | 62.65276 | 11.49903 | 19799 ft | 446 kts | 359° |
| 2026-05-06 14:20 | 62.67444 | 11.50026 | 19111 ft | 442 kts | 359° |
| 2026-05-06 14:20 | 62.70196 | 11.50181 | 18449 ft | 432 kts | 360° |
| 2026-05-06 14:21 | 62.73183 | 11.50348 | 17517 ft | 426 kts | 0° |
| 2026-05-06 14:21 | 62.76108 | 11.50510 | 16824 ft | 415 kts | 0° |
| 2026-05-06 14:21 | 62.78955 | 11.50670 | 16153 ft | 405 kts | 0° |
| 2026-05-06 14:21 | 62.81744 | 11.50829 | 15522 ft | 396 kts | 0° |
| 2026-05-06 14:22 | 62.84476 | 11.50985 | 14888 ft | 390 kts | 0° |
| 2026-05-06 14:22 | 62.87165 | 11.51144 | 14304 ft | 383 kts | 0° |
| 2026-05-06 14:22 | 62.89811 | 11.51304 | 13689 ft | 377 kts | 0° |
| 2026-05-06 14:22 | 62.92420 | 11.51466 | 13046 ft | 371 kts | 0° |
| 2026-05-06 14:23 | 62.94977 | 11.51625 | 12415 ft | 364 kts | 0° |
| 2026-05-06 14:23 | 62.97455 | 11.51778 | 11794 ft | 358 kts | 0° |
| 2026-05-06 14:23 | 62.99924 | 11.51925 | 11156 ft | 354 kts | 360° |
| 2026-05-06 14:23 | 63.02336 | 11.52064 | 10945 ft | 338 kts | 360° |
| 2026-05-06 14:24 | 63.04639 | 11.52196 | 10822 ft | 323 kts | 359° |
| 2026-05-06 14:24 | 63.06836 | 11.52325 | 10691 ft | 309 kts | 359° |
| 2026-05-06 14:24 | 63.08945 | 11.52452 | 10560 ft | 298 kts | 360° |
| 2026-05-06 14:24 | 63.10992 | 11.52576 | 10323 ft | 291 kts | 359° |
| 2026-05-06 14:25 | 63.12997 | 11.52696 | 10063 ft | 287 kts | 359° |
| 2026-05-06 14:25 | 63.14985 | 11.52813 | 9876 ft | 285 kts | 359° |
| 2026-05-06 14:25 | 63.16965 | 11.52923 | 9745 ft | 284 kts | 359° |
| 2026-05-06 14:25 | 63.18941 | 11.53034 | 9605 ft | 284 kts | 359° |
| 2026-05-06 14:26 | 63.20915 | 11.53151 | 9462 ft | 284 kts | 359° |
| 2026-05-06 14:26 | 63.22892 | 11.53271 | 9321 ft | 283 kts | 359° |
| 2026-05-06 14:26 | 63.24867 | 11.53387 | 8953 ft | 285 kts | 359° |
| 2026-05-06 14:26 | 63.26853 | 11.53505 | 8555 ft | 284 kts | 360° |
| 2026-05-06 14:27 | 63.28839 | 11.53627 | 8114 ft | 286 kts | 359° |
| 2026-05-06 14:27 | 63.30802 | 11.53746 | 7846 ft | 280 kts | 359° |
| 2026-05-06 14:27 | 63.32746 | 11.53863 | 7487 ft | 279 kts | 359° |
| 2026-05-06 14:27 | 63.34630 | 11.53981 | 7335 ft | 268 kts | 359° |
| 2026-05-06 14:28 | 63.36438 | 11.54101 | 7198 ft | 253 kts | 358° |
| 2026-05-06 14:28 | 63.38158 | 11.54072 | 6874 ft | 243 kts | 349° |
| 2026-05-06 14:28 | 63.39767 | 11.53122 | 6478 ft | 238 kts | 337° |
| 2026-05-06 14:28 | 63.41332 | 11.51881 | 6096 ft | 237 kts | 337° |
| 2026-05-06 14:29 | 63.42877 | 11.50675 | 5723 ft | 234 kts | 338° |
| 2026-05-06 14:29 | 63.44299 | 11.49077 | 5402 ft | 225 kts | 317° |
| 2026-05-06 14:29 | 63.45235 | 11.46405 | 5090 ft | 217 kts | 292° |
| 2026-05-06 14:29 | 63.45556 | 11.43175 | 4785 ft | 212 kts | 271° |
| 2026-05-06 14:30 | 63.45571 | 11.39898 | 4479 ft | 209 kts | 271° |
| 2026-05-06 14:30 | 63.45588 | 11.36684 | 4179 ft | 202 kts | 270° |
| 2026-05-06 14:30 | 63.45605 | 11.33654 | 4056 ft | 188 kts | 271° |
| 2026-05-06 14:30 | 63.45619 | 11.30767 | 3848 ft | 182 kts | 271° |
| 2026-05-06 14:31 | 63.45632 | 11.27976 | 3563 ft | 177 kts | 271° |
| 2026-05-06 14:31 | 63.45645 | 11.25256 | 3296 ft | 173 kts | 270° |
| 2026-05-06 14:31 | 63.45657 | 11.22569 | 3030 ft | 173 kts | 270° |
| 2026-05-06 14:31 | 63.45669 | 11.19880 | 2757 ft | 173 kts | 270° |
| 2026-05-06 14:32 | 63.45680 | 11.17192 | 2472 ft | 172 kts | 270° |
| 2026-05-06 14:32 | 63.45690 | 11.14596 | 2204 ft | 164 kts | 270° |
| 2026-05-06 14:32 | 63.45700 | 11.12103 | 1953 ft | 158 kts | 269° |
| 2026-05-06 14:32 | 63.45708 | 11.09677 | 1711 ft | 155 kts | 270° |
| 2026-05-06 14:33 | 63.45716 | 11.07285 | 1443 ft | 151 kts | 269° |
| 2026-05-06 14:33 | 63.45724 | 11.05061 | 1198 ft | 135 kts | 270° |
| 2026-05-06 14:33 | 63.45730 | 11.03029 | 989 ft | 128 kts | 270° |
| 2026-05-06 14:33 | 63.45737 | 11.01070 | 799 ft | 125 kts | 270° |
| 2026-05-06 14:34 | 63.45743 | 10.99141 | 602 ft | 123 kts | 270° |
| 2026-05-06 14:34 | 63.45749 | 10.97230 | 425 ft | 123 kts | 271° |
| 2026-05-06 14:34 | 63.45754 | 10.95313 | 224 ft | 123 kts | 271° |
| 2026-05-06 14:34 | 63.45759 | 10.93417 | 62 ft | 116 kts | 269° |
| 2026-05-06 14:35 | 63.45761 | 10.91866 | 39 ft | 78 kts | 270° |
| 2026-05-06 14:35 | 63.45762 | 10.91016 | 35 ft | 41 kts | 270° |
| 2026-05-06 14:35 | 63.45733 | 10.90545 | 33 ft | 22 kts | 249° |
| 2026-05-06 14:35 | 63.45639 | 10.90376 | 33 ft | 17 kts | 180° |
| 2026-05-06 14:36 | 63.45597 | 10.90594 | 34 ft | 18 kts | 90° |
| 2026-05-06 14:36 | 63.45597 | 10.90892 | 35 ft | 20 kts | 90° |
| 2026-05-06 14:36 | 63.45596 | 10.91221 | 36 ft | 22 kts | 90° |
| 2026-05-06 14:36 | 63.45596 | 10.91577 | 39 ft | 24 kts | 90° |
| 2026-05-06 14:37 | 63.45595 | 10.91925 | 40 ft | 15 kts | 90° |
| 2026-05-06 14:37 | 63.45545 | 10.91998 | 39 ft | 12 kts | 180° |
| 2026-05-06 14:37 | 63.45498 | 10.91998 | 39 ft | 1 kts | 180° |
| 2026-05-06 14:37 | 63.45494 | 10.91998 | 39 ft | 0 kts | 180° |